Randall, Iowa
Current Conditions -  °F | °C
As of 9:28 AM on Wednesday 26 Nov 2014 (Local Time) from KAMW Reporting Station
Light Snow Light Snow  
Wind Chill: 20°   Ceiling: 1500
Heat Index: 28°   Visibility: 0.75mi
Dew Point: 25°   Wind: 8mph
Humidity: 88%   Direction: 70°ENE
Pressure: 29.95"   Gusts: NA
Location:  42.24°N, 93.6°W
Report Text: KAMW 261528Z AUTO 07007KT 3/4SM -SN BR SCT008 OVC015 M02/M04 A2995 RMK AO2 P0000 T10221039
Loading
Personal Weather Stations






























Interactive Weather Map New forecast layout! Learn more

10-Day Weather Forecast

Advertisements
Track Severe Weather on mobile